Time;durP1;ratioP1;P1;durP2;ratioP2;P2;SDS_P1;SDS_P2;PMS_P1;PMS_P2;Temp;Humidity;BMP_temperature;BMP_pressure;BME280_temperature;BME280_humidity;BME280_pressure;Samples;Min_cycle;Max_cycle;Signal;HPM_P1;HPM_P2
2021/12/17 00:05:03;;;;;;;5.05;4.55;;;17.70;61.50;;;;;;5032009;28;20686;-60
2021/12/17 00:07:31;;;;;;;5.22;4.72;;;17.70;60.60;;;;;;5050517;28;20656;-60
2021/12/17 00:09:57;;;;;;;5.00;4.50;;;17.70;60.60;;;;;;5051597;28;20282;-59
2021/12/17 00:12:26;;;;;;;5.65;4.68;;;17.60;60.50;;;;;;5051171;28;20231;-60
2021/12/17 00:14:52;;;;;;;5.78;5.28;;;17.60;60.60;;;;;;5050800;28;20183;-60
2021/12/17 00:17:24;;;;;;;4.88;4.38;;;17.60;60.60;;;;;;5051415;28;20175;-59
2021/12/17 00:49:46;;;;;;;4.88;4.10;;;17.50;60.40;;;;;;5054131;28;20309;-58
2021/12/17 00:52:11;;;;;;;4.63;3.95;;;17.50;60.50;;;;;;5055111;28;20701;-58
2021/12/17 00:54:40;;;;;;;4.82;4.32;;;17.50;60.40;;;;;;5054696;28;20271;-58
2021/12/17 00:57:09;;;;;;;5.25;4.75;;;17.50;60.70;;;;;;5054204;28;20614;-59
2021/12/17 00:59:35;;;;;;;4.80;4.00;;;17.50;60.50;;;;;;5054853;28;20187;-60
2021/12/17 01:02:03;;;;;;;5.28;4.57;;;17.50;60.50;;;;;;5054971;28;20171;-59
2021/12/17 01:04:28;;;;;;;5.00;4.30;;;17.40;60.30;;;;;;5053937;28;20221;-59
2021/12/17 01:06:54;;;;;;;4.55;4.03;;;17.40;60.30;;;;;;5054859;28;20199;-59
2021/12/17 01:09:20;;;;;;;4.85;4.35;;;17.40;60.40;;;;;;5054396;28;20207;-58
2021/12/17 01:11:46;;;;;;;5.95;4.82;;;17.40;60.30;;;;;;5054000;28;20171;-59
2021/12/17 01:14:12;;;;;;;4.65;4.20;;;17.40;60.30;;;;;;5054810;28;20194;-59
2021/12/17 01:16:37;;;;;;;4.80;4.30;;;17.40;60.30;;;;;;5054494;28;20210;-59
2021/12/17 01:19:15;;;;;;;4.57;4.18;;;17.40;60.30;;;;;;5053998;28;20172;-59
2021/12/17 01:38:48;;;;;;;4.57;3.58;;;17.30;60.20;;;;;;5054463;28;20258;-60
2021/12/17 01:43:11;;;;;;;4.43;4.03;;;17.30;60.20;;;;;;5054574;28;20178;-60
2021/12/17 01:45:39;;;;;;;4.63;4.15;;;17.30;60.30;;;;;;5053096;28;20179;-59
2021/12/17 01:48:08;;;;;;;4.93;4.43;;;17.30;61.10;;;;;;5054594;28;20183;-60
2021/12/17 01:56:17;;;;;;;5.88;3.95;;;17.30;60.20;;;;;;5054183;28;20317;-61
2021/12/17 02:01:27;;;;;;;5.03;4.22;;;17.30;60.20;;;;;;5053002;28;20225;-60
2021/12/17 02:03:53;;;;;;;5.15;4.03;;;17.30;60.20;;;;;;5053764;28;20175;-60
2021/12/17 02:06:20;;;;;;;4.97;4.03;;;17.30;60.20;;;;;;5053103;28;20195;-59
2021/12/17 02:08:48;;;;;;;4.53;4.10;;;17.20;60.20;;;;;;5053909;28;20203;-59
2021/12/17 02:11:57;;;;;;;4.43;4.03;;;17.30;60.20;;;;;;5053803;28;20228;-59
2021/12/17 02:30:53;;;;;;;4.22;3.80;;;17.20;60.20;;;;;;5053159;28;20209;-59
2021/12/17 02:33:19;;;;;;;5.40;3.75;;;17.20;60.20;;;;;;5053561;28;20181;-59
2021/12/17 02:35:46;;;;;;;4.20;3.33;;;17.10;60.10;;;;;;5053094;28;20637;-63
2021/12/17 02:38:14;;;;;;;4.68;3.97;;;17.20;60.20;;;;;;5053645;28;20254;-59
2021/12/17 02:46:07;;;;;;;3.97;3.40;;;17.10;60.10;;;;;;5053055;28;20409;-58
2021/12/17 02:48:33;;;;;;;3.85;3.50;;;17.10;60.10;;;;;;5052214;28;20303;-58
2021/12/17 02:50:59;;;;;;;4.05;3.33;;;17.10;60.20;;;;;;5052577;28;20176;-59
2021/12/17 02:53:26;;;;;;;3.70;3.35;;;17.10;60.10;;;;;;5052754;28;20622;-58
2021/12/17 02:56:10;;;;;;;4.00;3.58;;;17.10;60.20;;;;;;5052203;28;20630;-59
2021/12/17 02:58:36;;;;;;;3.53;3.20;;;17.10;60.10;;;;;;5052975;28;20171;-60
2021/12/17 03:01:03;;;;;;;3.25;2.95;;;17.10;60.10;;;;;;5053050;28;20175;-59
2021/12/17 03:03:31;;;;;;;3.35;3.05;;;17.10;60.10;;;;;;5051927;28;20183;-59
2021/12/17 03:05:57;;;;;;;3.70;3.40;;;17.10;60.10;;;;;;5052249;28;20202;-59
2021/12/17 03:08:22;;;;;;;3.60;3.17;;;17.10;60.10;;;;;;5052266;28;20211;-59
2021/12/17 03:10:48;;;;;;;3.53;3.22;;;17.10;60.10;;;;;;5050961;28;20179;-58
2021/12/17 03:13:15;;;;;;;3.33;3.03;;;17.10;60.20;;;;;;5052720;28;20199;-59
2021/12/17 03:23:40;;;;;;;3.30;3.00;;;17.00;60.00;;;;;;5052293;28;20563;-59
2021/12/17 03:26:16;;;;;;;3.65;3.22;;;17.00;60.90;;;;;;5052559;28;20170;-59
2021/12/17 03:28:44;;;;;;;3.58;3.13;;;17.00;60.00;;;;;;5052105;28;20712;-59
2021/12/17 03:31:10;;;;;;;3.45;3.08;;;17.00;60.00;;;;;;5051626;28;20182;-59
2021/12/17 03:33:36;;;;;;;3.22;2.92;;;17.00;60.00;;;;;;5052146;28;20183;-60
2021/12/17 03:36:02;;;;;;;2.65;2.45;;;17.00;60.00;;;;;;5052382;28;20237;-59
2021/12/17 03:38:27;;;;;;;2.90;2.58;;;17.00;60.00;;;;;;5051149;28;20179;-59
2021/12/17 03:41:04;;;;;;;2.80;2.60;;;17.00;60.00;;;;;;5052159;28;20248;-58
2021/12/17 03:43:32;;;;;;;3.00;2.72;;;17.00;60.00;;;;;;5051590;28;20211;-59
2021/12/17 03:45:58;;;;;;;2.92;2.70;;;17.00;60.00;;;;;;5051013;28;20226;-60
2021/12/17 03:48:31;;;;;;;3.03;2.75;;;17.00;60.10;;;;;;5051350;28;20182;-59
2021/12/17 03:50:56;;;;;;;3.17;2.58;;;17.00;60.00;;;;;;5051659;28;20653;-59
2021/12/17 03:53:22;;;;;;;3.28;2.72;;;17.00;60.00;;;;;;5050909;28;20170;-59
2021/12/17 03:55:47;;;;;;;2.90;2.60;;;16.90;60.00;;;;;;5051748;28;20200;-60
2021/12/17 03:58:13;;;;;;;3.20;2.90;;;17.00;60.00;;;;;;5051607;28;20171;-60
2021/12/17 04:00:38;;;;;;;2.67;2.47;;;17.00;60.00;;;;;;5050438;28;20182;-59
2021/12/17 04:03:04;;;;;;;2.72;2.53;;;16.90;59.90;;;;;;5050776;28;20217;-58
2021/12/17 04:05:29;;;;;;;2.90;2.55;;;16.90;60.00;;;;;;5051440;28;20171;-59
2021/12/17 04:07:55;;;;;;;2.65;2.45;;;16.90;60.00;;;;;;5050937;28;20242;-59
2021/12/17 04:10:22;;;;;;;2.60;2.40;;;16.90;60.00;;;;;;5051119;28;20576;-59
2021/12/17 04:12:56;;;;;;;3.25;2.83;;;16.90;60.00;;;;;;5051065;28;20175;-59
2021/12/17 04:15:34;;;;;;;2.58;2.38;;;16.90;60.00;;;;;;5051091;28;20699;-59
2021/12/17 04:18:00;;;;;;;3.30;2.92;;;16.90;60.00;;;;;;5051785;28;20179;-58
2021/12/17 04:20:25;;;;;;;2.85;2.45;;;16.90;60.00;;;;;;5050559;28;20178;-59
2021/12/17 04:22:51;;;;;;;2.70;2.38;;;16.90;60.00;;;;;;5051347;28;20220;-59
2021/12/17 04:25:16;;;;;;;2.88;2.67;;;16.90;60.00;;;;;;5051243;28;20171;-59
2021/12/17 04:27:42;;;;;;;2.65;2.45;;;16.90;60.00;;;;;;5050537;28;20255;-59
2021/12/17 04:30:07;;;;;;;2.95;2.65;;;16.90;60.90;;;;;;5051446;28;20357;-59
2021/12/17 04:32:33;;;;;;;2.70;2.50;;;16.90;60.00;;;;;;5051029;28;20183;-59
2021/12/17 04:34:58;;;;;;;2.90;2.70;;;16.90;60.00;;;;;;5050639;28;20579;-59
2021/12/17 04:37:24;;;;;;;3.13;2.83;;;16.80;59.90;;;;;;5050952;28;20297;-59
2021/12/17 04:39:50;;;;;;;3.72;2.75;;;16.90;60.00;;;;;;5051264;28;20229;-59
2021/12/17 04:42:28;;;;;;;2.88;2.67;;;16.90;60.00;;;;;;5050505;28;20167;-58
2021/12/17 04:44:56;;;;;;;3.15;2.70;;;16.90;60.00;;;;;;5051534;28;20203;-59
2021/12/17 04:58:22;;;;;;;2.60;2.40;;;16.80;60.10;;;;;;5050908;28;20253;-60
2021/12/17 05:00:47;;;;;;;2.65;2.45;;;16.80;60.00;;;;;;5051025;28;20168;-60
2021/12/17 05:03:13;;;;;;;2.58;2.38;;;16.80;59.90;;;;;;5050562;28;20178;-60
2021/12/17 05:05:38;;;;;;;2.90;2.63;;;16.80;59.90;;;;;;5050867;28;20190;-59
2021/12/17 05:08:09;;;;;;;2.60;2.40;;;16.80;60.00;;;;;;5050989;28;20509;-60
2021/12/17 05:18:32;;;;;;;4.57;3.13;;;16.80;60.00;;;;;;5053893;28;20256;-59
2021/12/17 05:21:03;;;;;;;3.30;2.78;;;16.80;59.90;;;;;;5054738;28;20187;-60
2021/12/17 05:23:33;;;;;;;3.17;2.83;;;16.80;60.00;;;;;;5053755;28;20977;-60
2021/12/17 05:26:00;;;;;;;3.13;2.83;;;16.80;60.00;;;;;;5054648;28;20182;-60
2021/12/17 05:28:25;;;;;;;3.13;2.83;;;16.70;59.90;;;;;;5054194;28;20199;-59
2021/12/17 05:30:51;;;;;;;5.03;3.58;;;16.80;60.00;;;;;;5053645;28;20639;-59
2021/12/17 05:33:20;;;;;;;3.70;3.20;;;16.70;59.90;;;;;;5054551;28;20203;-60
2021/12/17 05:35:46;;;;;;;2.72;2.40;;;16.70;59.90;;;;;;5054494;28;20270;-60
2021/12/17 05:38:12;;;;;;;3.20;2.85;;;16.70;59.90;;;;;;5053562;28;20306;-60
2021/12/17 05:40:37;;;;;;;4.22;2.97;;;16.70;59.90;;;;;;5054185;28;20178;-60
2021/12/17 05:43:05;;;;;;;3.22;2.92;;;16.70;59.90;;;;;;5054359;28;20171;-60
2021/12/17 05:45:34;;;;;;;2.72;2.53;;;16.70;59.90;;;;;;5053203;28;20243;-59
2021/12/17 05:48:01;;;;;;;3.80;2.90;;;16.70;59.90;;;;;;5054137;28;20684;-59
2021/12/17 05:50:26;;;;;;;4.10;3.28;;;16.70;59.90;;;;;;5054166;28;20219;-59
2021/12/17 05:52:52;;;;;;;2.72;2.53;;;16.70;60.00;;;;;;5053530;28;20183;-59
2021/12/17 05:55:17;;;;;;;3.30;3.00;;;16.70;59.90;;;;;;5054210;28;20182;-60
2021/12/17 05:57:43;;;;;;;3.85;3.33;;;16.70;59.90;;;;;;5053839;28;20171;-60
2021/12/17 06:00:08;;;;;;;2.92;2.60;;;16.70;60.00;;;;;;5053456;28;20269;-61
2021/12/17 06:02:34;;;;;;;3.33;3.00;;;16.70;59.90;;;;;;5053686;28;20270;-60
2021/12/17 06:04:59;;;;;;;3.88;3.17;;;16.70;60.00;;;;;;5053923;28;20203;-61
2021/12/17 06:07:28;;;;;;;3.08;2.65;;;16.70;59.90;;;;;;5052917;28;20262;-60
2021/12/17 06:09:57;;;;;;;3.33;2.78;;;16.60;59.90;;;;;;5053614;28;20623;-60
2021/12/17 06:12:23;;;;;;;3.47;2.90;;;16.70;60.00;;;;;;5052966;28;20190;-59
2021/12/17 06:14:48;;;;;;;3.15;2.80;;;16.70;59.90;;;;;;5053794;28;20210;-60
2021/12/17 06:17:14;;;;;;;3.13;2.85;;;16.60;59.90;;;;;;5053869;28;20320;-60
2021/12/17 06:19:39;;;;;;;3.10;2.80;;;16.60;59.90;;;;;;5052714;28;20180;-60
2021/12/17 06:22:05;;;;;;;2.67;2.47;;;16.60;59.90;;;;;;5053699;28;20175;-60
2021/12/17 06:24:30;;;;;;;3.20;2.90;;;16.60;59.90;;;;;;5053634;28;20175;-60
2021/12/17 06:26:56;;;;;;;3.15;2.85;;;16.60;59.90;;;;;;5052294;28;20257;-61
2021/12/17 06:29:21;;;;;;;3.25;2.97;;;16.60;59.90;;;;;;5053223;28;20227;-60
2021/12/17 06:31:47;;;;;;;3.15;2.85;;;16.60;59.90;;;;;;5053664;28;20168;-60
2021/12/17 06:34:12;;;;;;;3.13;2.63;;;16.60;59.90;;;;;;5052720;28;20170;-60
2021/12/17 06:36:38;;;;;;;2.83;2.40;;;16.60;59.90;;;;;;5053118;28;20248;-59
2021/12/17 06:39:03;;;;;;;2.65;2.42;;;16.60;59.90;;;;;;5053529;28;20182;-60
2021/12/17 06:41:29;;;;;;;2.83;2.50;;;16.60;59.90;;;;;;5052478;28;20184;-60
2021/12/17 06:43:57;;;;;;;3.17;2.85;;;16.60;59.90;;;;;;5053391;28;20175;-59
2021/12/17 06:46:35;;;;;;;3.17;2.88;;;16.60;59.90;;;;;;5052706;28;20772;-59
2021/12/17 06:49:24;;;;;;;3.03;2.72;;;16.60;60.80;;;;;;5052588;28;20199;-59
2021/12/17 07:10:37;;;;;;;3.00;2.70;;;16.60;59.90;;;;;;5052013;28;20210;-58
2021/12/17 07:34:20;;;;;;;2.55;2.35;;;16.50;60.10;;;;;;5052452;28;20539;-59
2021/12/17 07:39:17;;;;;;;2.42;1.75;;;16.60;60.20;;;;;;5052533;28;20167;-59
2021/12/17 07:41:46;;;;;;;2.10;1.90;;;16.80;60.00;;;;;;5051786;28;20175;-58
2021/12/17 07:44:13;;;;;;;2.38;2.10;;;16.90;59.80;;;;;;5051447;28;20175;-59
2021/12/17 07:46:38;;;;;;;2.20;2.00;;;17.10;59.70;;;;;;5051418;28;20701;-59
2021/12/17 07:49:04;;;;;;;2.13;1.90;;;17.40;59.20;;;;;;5052131;28;20202;-58
2021/12/17 07:51:29;;;;;;;1.50;1.40;;;17.60;58.90;;;;;;5051149;28;20179;-58
2021/12/17 07:53:56;;;;;;;1.55;1.38;;;17.80;58.60;;;;;;5052305;28;20176;-60
2021/12/17 07:56:27;;;;;;;1.80;1.70;;;18.00;58.10;;;;;;5052104;28;20175;-60
2021/12/17 07:58:52;;;;;;;1.70;1.60;;;18.20;57.80;;;;;;5051608;28;20214;-60
2021/12/17 08:01:18;;;;;;;1.70;1.60;;;18.40;57.40;;;;;;5051997;28;20229;-60
2021/12/17 08:03:44;;;;;;;1.58;1.48;;;18.60;56.90;;;;;;5051932;28;20182;-59
2021/12/17 08:06:10;;;;;;;1.42;1.35;;;18.70;56.70;;;;;;5050988;28;20175;-59
2021/12/17 08:08:35;;;;;;;1.60;1.50;;;18.80;56.60;;;;;;5051510;28;20175;-59
2021/12/17 08:11:01;;;;;;;1.45;1.35;;;18.80;56.50;;;;;;5051741;28;20218;-62
2021/12/17 08:13:30;;;;;;;1.63;1.52;;;18.90;56.70;;;;;;5050680;28;20677;-63
2021/12/17 08:16:08;;;;;;;1.02;1.02;;;18.90;56.50;;;;;;5051606;28;20174;-62
2021/12/17 08:26:24;;;;;;;1.63;1.10;;;18.80;56.80;;;;;;5050788;28;20241;-62
2021/12/17 08:28:54;;;;;;;1.10;1.10;;;18.80;56.90;;;;;;5051539;28;20214;-62
2021/12/17 08:31:19;;;;;;;1.17;1.10;;;18.80;57.00;;;;;;5051271;28;20282;-61
2021/12/17 08:33:45;;;;;;;1.23;1.13;;;18.80;56.90;;;;;;5050987;28;20286;-64
2021/12/17 08:36:11;;;;;;;1.40;1.20;;;18.80;56.90;;;;;;5051382;28;20183;-64
2021/12/17 08:38:37;;;;;;;1.30;1.20;;;18.80;56.90;;;;;;5051294;28;20202;-64
2021/12/17 08:41:02;;;;;;;1.02;1.02;;;19.10;57.10;;;;;;5050755;28;20271;-63
2021/12/17 08:43:28;;;;;;;1.30;1.20;;;18.80;57.10;;;;;;5051262;28;20187;-63
2021/12/17 08:45:53;;;;;;;1.52;1.08;;;18.70;57.20;;;;;;5051204;28;20226;-64
2021/12/17 08:48:19;;;;;;;0.88;0.82;;;18.60;57.30;;;;;;5050417;28;20179;-63
2021/12/17 08:50:44;;;;;;;1.27;1.17;;;18.60;57.50;;;;;;5055021;28;20306;-60
2021/12/17 08:53:10;;;;;;;2.45;1.15;;;18.50;58.30;;;;;;5055454;28;20175;-60
2021/12/17 08:55:35;;;;;;;1.40;1.30;;;18.40;58.50;;;;;;5054368;28;20266;-61
2021/12/17 08:58:01;;;;;;;3.83;1.52;;;18.30;58.80;;;;;;5055252;28;20211;-61
2021/12/17 09:00:27;;;;;;;3.15;1.60;;;18.20;59.20;;;;;;5054638;28;20178;-65
2021/12/17 09:02:58;;;;;;;1.20;1.10;;;18.10;59.50;;;;;;5054613;28;20665;-65
2021/12/17 09:05:23;;;;;;;5.78;1.55;;;18.10;59.40;;;;;;5055030;28;20179;-65
2021/12/17 09:07:49;;;;;;;2.45;1.25;;;18.10;59.50;;;;;;5055178;28;20206;-63
2021/12/17 09:10:20;;;;;;;2.65;1.48;;;18.10;59.40;;;;;;5054445;28;20276;-63
2021/12/17 09:12:45;;;;;;;1.25;1.08;;;18.20;59.40;;;;;;5054943;28;20171;-63
2021/12/17 09:15:11;;;;;;;3.35;1.27;;;18.20;59.50;;;;;;5054955;28;20182;-63
2021/12/17 09:17:37;;;;;;;1.63;1.30;;;18.20;59.40;;;;;;5054262;28;20199;-63
2021/12/17 09:20:05;;;;;;;3.75;1.50;;;18.20;59.40;;;;;;5055011;28;20171;-62
2021/12/17 09:22:30;;;;;;;2.00;1.23;;;18.10;59.50;;;;;;5054056;28;20171;-62
2021/12/17 09:24:56;;;;;;;1.70;1.60;;;18.10;59.70;;;;;;5055020;28;20183;-63
2021/12/17 09:27:21;;;;;;;2.15;1.40;;;18.10;59.80;;;;;;5054468;28;20178;-62
2021/12/17 09:29:47;;;;;;;1.27;1.20;;;18.00;59.80;;;;;;5054108;28;20207;-63
2021/12/17 09:32:12;;;;;;;3.20;1.30;;;18.00;59.80;;;;;;5054717;28;20171;-64
2021/12/17 09:34:38;;;;;;;1.67;1.27;;;18.10;59.80;;;;;;5054324;28;20863;-66
2021/12/17 09:37:03;;;;;;;1.40;1.30;;;18.10;59.70;;;;;;5053945;28;20248;-63
2021/12/17 09:39:29;;;;;;;1.20;1.10;;;18.20;59.60;;;;;;5054174;28;20187;-63
2021/12/17 09:41:55;;;;;;;1.70;1.30;;;18.20;59.70;;;;;;5054495;28;20205;-63
2021/12/17 09:44:21;;;;;;;1.40;1.15;;;18.10;59.60;;;;;;5053389;28;20261;-62
2021/12/17 09:46:47;;;;;;;1.95;1.15;;;18.10;59.70;;;;;;5062944;28;20740;-62
2021/12/17 09:49:12;;;;;;;1.92;1.10;;;18.10;59.70;;;;;;5064451;28;20206;-62
2021/12/17 09:51:40;;;;;;;0.90;0.88;;;18.00;59.70;;;;;;5059885;28;20660;-62
2021/12/17 09:54:06;;;;;;;1.45;1.05;;;18.00;59.80;;;;;;5054286;28;20175;-64
2021/12/17 09:56:32;;;;;;;1.02;0.90;;;18.50;60.10;;;;;;5053830;28;20167;-64
2021/12/17 09:58:58;;;;;;;1.75;1.08;;;18.00;59.80;;;;;;5053757;28;20194;-63
2021/12/17 10:01:23;;;;;;;1.00;0.90;;;18.00;59.80;;;;;;5052356;28;20510;-64
2021/12/17 10:04:20;;;;;;;1.63;1.10;;;18.00;59.70;;;;;;5052772;28;20179;-63
2021/12/17 10:06:49;;;;;;;1.48;0.95;;;18.00;59.70;;;;;;5053570;28;20204;-63
2021/12/17 10:09:16;;;;;;;1.00;0.70;;;18.00;59.60;;;;;;5053988;28;20225;-62
2021/12/17 10:12:04;;;;;;;1.73;1.20;;;18.00;59.50;;;;;;5051831;28;20266;-62
2021/12/17 10:14:30;;;;;;;0.90;0.90;;;18.00;59.60;;;;;;5053668;28;20179;-62
2021/12/17 10:17:06;;;;;;;0.80;0.80;;;18.00;59.60;;;;;;5053968;28;20167;-62
2021/12/17 10:19:46;;;;;;;1.65;0.93;;;17.90;59.70;;;;;;5066607;28;20178;-62
2021/12/17 10:22:12;;;;;;;1.10;1.00;;;17.90;59.80;;;;;;5073994;28;20178;-62
2021/12/17 10:24:41;;;;;;;1.25;1.15;;;17.90;59.80;;;;;;5073475;28;20329;-62
2021/12/17 10:27:27;;;;;;;1.33;0.98;;;17.80;59.70;;;;;;5071785;28;20293;-61
2021/12/17 10:29:52;;;;;;;2.22;0.85;;;17.90;59.60;;;;;;5073776;28;20240;-62
2021/12/17 10:32:19;;;;;;;1.25;1.05;;;18.00;59.60;;;;;;5074166;28;20262;-63
2021/12/17 10:35:11;;;;;;;1.65;0.88;;;18.00;59.50;;;;;;5073173;28;20257;-65
2021/12/17 10:37:55;;;;;;;0.80;0.80;;;18.00;59.50;;;;;;5073267;28;20253;-63
2021/12/17 10:40:24;;;;;;;0.80;0.80;;;18.00;59.50;;;;;;5072427;28;20265;-63
2021/12/17 10:43:07;;;;;;;1.00;0.90;;;17.90;59.50;;;;;;5073535;28;20170;-62
2021/12/17 10:45:46;;;;;;;2.00;1.20;;;17.90;59.60;;;;;;5073149;28;20203;-61
2021/12/17 10:48:25;;;;;;;1.98;1.00;;;17.90;59.80;;;;;;5072568;28;20644;-60
2021/12/17 10:50:56;;;;;;;3.08;1.20;;;17.80;60.20;;;;;;5072032;28;20256;-64
2021/12/17 10:53:24;;;;;;;7.15;1.25;;;17.80;60.50;;;;;;5060071;28;20186;-64
2021/12/17 10:55:50;;;;;;;2.35;1.08;;;17.80;60.80;;;;;;5052381;28;20190;-64
2021/12/17 10:58:16;;;;;;;1.58;1.00;;;17.80;60.80;;;;;;5053281;28;20167;-62
2021/12/17 11:01:05;;;;;;;2.53;0.93;;;17.80;60.90;;;;;;5052717;28;20175;-62
2021/12/17 11:03:30;;;;;;;1.35;1.00;;;17.70;60.80;;;;;;5052983;28;20220;-63
2021/12/17 11:05:57;;;;;;;2.15;1.00;;;17.70;60.90;;;;;;5034873;28;20309;-66
2021/12/17 11:08:31;;;;;;;2.55;0.75;;;17.70;61.00;;;;;;5052001;28;20179;-62
2021/12/17 11:11:08;;;;;;;0.93;0.85;;;17.70;61.90;;;;;;5053087;28;20206;-63
2021/12/17 11:13:35;;;;;;;5.25;1.20;;;17.70;61.10;;;;;;5052126;28;20246;-62
2021/12/17 11:16:00;;;;;;;1.35;0.93;;;17.60;61.10;;;;;;5052272;28;20209;-62
2021/12/17 11:18:26;;;;;;;3.53;0.80;;;17.60;61.10;;;;;;5034736;28;20172;-64
2021/12/17 11:20:53;;;;;;;1.42;0.95;;;17.60;61.20;;;;;;5052602;28;20304;-64
2021/12/17 11:23:18;;;;;;;0.95;0.88;;;17.70;61.20;;;;;;5052108;28;20163;-64
2021/12/17 11:25:45;;;;;;;1.63;0.85;;;17.70;61.10;;;;;;5051260;28;20186;-62
2021/12/17 11:28:11;;;;;;;1.50;1.00;;;17.80;60.90;;;;;;5052381;28;20182;-63
2021/12/17 11:30:39;;;;;;;1.75;1.10;;;17.80;60.80;;;;;;5051569;28;20211;-65
2021/12/17 11:33:05;;;;;;;3.10;1.15;;;17.80;61.70;;;;;;5052399;28;20590;-63
2021/12/17 11:35:32;;;;;;;1.13;0.70;;;17.80;60.90;;;;;;5052145;28;20187;-64
2021/12/17 11:38:14;;;;;;;1.35;0.90;;;17.70;61.00;;;;;;5051680;28;20186;-64
2021/12/17 11:41:12;;;;;;;0.90;0.90;;;17.70;61.10;;;;;;5049807;28;20179;-62
2021/12/17 11:43:59;;;;;;;1.10;0.85;;;17.70;61.20;;;;;;5051565;28;20194;-64
2021/12/17 11:46:30;;;;;;;2.15;1.08;;;17.70;61.20;;;;;;5050408;28;20661;-65
2021/12/17 11:49:05;;;;;;;1.60;0.80;;;17.70;61.20;;;;;;5052578;28;20211;-63
2021/12/17 11:51:32;;;;;;;0.70;0.70;;;17.70;61.10;;;;;;5051170;28;20300;-63
2021/12/17 11:54:04;;;;;;;1.40;0.90;;;17.70;61.00;;;;;;5068332;28;20166;-62
2021/12/17 11:56:42;;;;;;;1.15;0.80;;;17.80;61.00;;;;;;5071729;28;20228;-64
2021/12/17 11:59:11;;;;;;;0.73;0.73;;;17.70;61.00;;;;;;5071292;28;20633;-63
2021/12/17 12:02:05;;;;;;;1.38;0.90;;;17.70;61.00;;;;;;5071523;28;20265;-64
2021/12/17 12:04:40;;;;;;;2.35;0.82;;;17.70;61.20;;;;;;5071158;28;20169;-63
2021/12/17 12:07:25;;;;;;;2.20;0.80;;;17.70;61.60;;;;;;5071953;28;20582;-63
2021/12/17 12:10:00;;;;;;;1.25;0.85;;;17.60;61.40;;;;;;5072001;28;20273;-66
2021/12/17 12:12:29;;;;;;;3.53;1.20;;;17.60;61.60;;;;;;5071110;28;20181;-67
2021/12/17 12:14:54;;;;;;;3.03;1.00;;;17.60;61.70;;;;;;5071814;28;20253;-65
2021/12/17 12:17:57;;;;;;;0.82;0.82;;;17.70;61.60;;;;;;5071756;28;20224;-70
2021/12/17 12:23:31;;;;;;;1.52;1.05;;;17.80;61.30;;;;;;5071632;28;20178;-64
2021/12/17 12:26:03;;;;;;;0.98;0.82;;;17.80;61.20;;;;;;5071285;28;20249;-65
2021/12/17 12:28:49;;;;;;;1.80;1.08;;;17.80;61.20;;;;;;5071082;28;20322;-63
2021/12/17 12:31:27;;;;;;;1.05;1.00;;;17.80;61.30;;;;;;5071409;28;20648;-65
2021/12/17 12:36:43;;;;;;;1.02;0.77;;;17.70;61.50;;;;;;5071151;28;20216;-63
2021/12/17 12:39:30;;;;;;;2.25;1.05;;;17.60;61.60;;;;;;5071303;28;20257;-63
2021/12/17 12:41:59;;;;;;;3.45;1.30;;;17.70;61.60;;;;;;5071688;28;20249;-63
2021/12/17 12:44:40;;;;;;;3.40;1.00;;;17.70;61.70;;;;;;5071077;28;20632;-65
2021/12/17 12:47:06;;;;;;;1.85;0.70;;;17.70;61.60;;;;;;5070516;28;20624;-64
2021/12/17 12:49:48;;;;;;;5.05;1.10;;;17.70;61.40;;;;;;5070892;28;20237;-65
2021/12/17 12:52:29;;;;;;;1.90;1.17;;;17.80;61.30;;;;;;5069545;28;20182;-65
2021/12/17 12:55:03;;;;;;;2.20;0.93;;;17.70;61.30;;;;;;5050692;28;20174;-64
2021/12/17 12:57:41;;;;;;;2.53;0.60;;;17.70;61.40;;;;;;5051131;28;20208;-66
2021/12/17 13:00:08;;;;;;;1.25;0.70;;;17.60;61.50;;;;;;5051297;28;20183;-65
2021/12/17 13:02:33;;;;;;;3.72;0.95;;;17.60;61.60;;;;;;5050473;28;20199;-64
2021/12/17 13:04:59;;;;;;;1.35;0.77;;;17.60;61.70;;;;;;5051400;28;20546;-68
2021/12/17 13:07:39;;;;;;;1.50;0.73;;;17.60;61.90;;;;;;5050176;28;20225;-61
2021/12/17 13:10:10;;;;;;;1.02;0.60;;;17.60;61.90;;;;;;5051132;28;20559;-65
2021/12/17 13:12:38;;;;;;;1.90;1.00;;;17.60;62.00;;;;;;5050553;28;20237;-65
2021/12/17 13:15:19;;;;;;;3.05;0.77;;;17.50;62.00;;;;;;5032930;28;20620;-64
2021/12/17 13:20:28;;;;;;;2.30;1.20;;;17.50;62.10;;;;;;5050939;28;20199;-63
2021/12/17 13:24:07;;;;;;;2.45;1.17;;;17.50;61.90;;;;;;5051082;28;20207;-66
2021/12/17 13:26:36;;;;;;;2.70;0.70;;;17.40;61.80;;;;;;5051075;28;20186;-64
2021/12/17 13:29:06;;;;;;;3.30;0.90;;;17.40;62.60;;;;;;5050054;28;20543;-63
2021/12/17 13:31:54;;;;;;;1.05;0.75;;;17.40;61.70;;;;;;5050859;28;20259;-65
2021/12/17 13:34:30;;;;;;;3.20;1.00;;;17.40;61.70;;;;;;5050866;28;20250;-66
2021/12/17 13:36:58;;;;;;;1.45;0.77;;;17.40;62.70;;;;;;5053796;28;20179;-65
2021/12/17 13:39:26;;;;;;;1.83;0.85;;;17.50;61.80;;;;;;5054606;28;20179;-65
2021/12/17 13:41:52;;;;;;;1.00;0.90;;;17.50;61.70;;;;;;5054369;28;20258;-64
2021/12/17 13:44:41;;;;;;;1.20;0.88;;;17.60;61.60;;;;;;5053932;28;20267;-65
2021/12/17 13:47:12;;;;;;;1.02;0.68;;;17.70;61.40;;;;;;5054236;28;20250;-64
2021/12/17 13:49:41;;;;;;;2.30;0.65;;;17.70;61.20;;;;;;5052614;28;20677;-65
2021/12/17 13:52:07;;;;;;;2.50;0.70;;;17.70;61.00;;;;;;5053841;28;20190;-64
2021/12/17 13:54:32;;;;;;;1.13;1.02;;;17.70;61.00;;;;;;5073988;28;20166;-64
2021/12/17 13:57:02;;;;;;;0.90;0.60;;;17.70;60.90;;;;;;5072810;28;20175;-63
2021/12/17 13:59:35;;;;;;;1.05;0.95;;;17.60;60.80;;;;;;5074051;28;20194;-65
2021/12/17 14:02:09;;;;;;;1.85;0.98;;;17.60;60.90;;;;;;5074085;28;20463;-64
2021/12/17 14:04:34;;;;;;;1.63;0.85;;;17.60;60.90;;;;;;5072944;28;20232;-65
2021/12/17 14:07:09;;;;;;;2.22;0.80;;;17.60;60.90;;;;;;5073209;28;20570;-65
2021/12/17 14:09:35;;;;;;;2.35;0.85;;;17.70;61.00;;;;;;5073919;28;20214;-64
2021/12/17 14:12:10;;;;;;;0.65;0.65;;;17.70;60.90;;;;;;5073437;28;20665;-63
2021/12/17 14:14:36;;;;;;;0.80;0.70;;;17.80;60.80;;;;;;5073556;28;20597;-64
2021/12/17 14:17:03;;;;;;;0.60;0.60;;;17.80;60.60;;;;;;5073706;28;20607;-63
2021/12/17 14:20:04;;;;;;;1.48;0.70;;;17.80;60.50;;;;;;5072532;28;20522;-64
2021/12/17 14:22:36;;;;;;;0.60;0.60;;;17.80;60.50;;;;;;5073231;28;20178;-64
2021/12/17 14:25:21;;;;;;;1.50;0.70;;;17.80;60.60;;;;;;5073021;28;20182;-63
2021/12/17 14:27:47;;;;;;;1.85;0.70;;;17.70;60.50;;;;;;5072693;28;20178;-63
2021/12/17 14:30:12;;;;;;;2.95;1.00;;;17.70;60.60;;;;;;5073333;28;20268;-64
2021/12/17 14:32:42;;;;;;;1.58;0.60;;;17.80;60.60;;;;;;5072629;28;20178;-64
2021/12/17 14:35:08;;;;;;;0.68;0.50;;;17.80;60.50;;;;;;5073269;28;20527;-65
2021/12/17 14:37:56;;;;;;;1.27;0.60;;;17.80;60.50;;;;;;5073223;28;20229;-65
2021/12/17 14:40:34;;;;;;;1.02;0.70;;;17.80;60.30;;;;;;5072548;28;20183;-65
2021/12/17 14:43:00;;;;;;;1.65;0.73;;;17.80;60.30;;;;;;5073449;28;20167;-65
2021/12/17 14:45:34;;;;;;;1.00;0.70;;;17.80;60.30;;;;;;5073140;28;20185;-66
2021/12/17 14:48:21;;;;;;;0.70;0.70;;;17.80;60.30;;;;;;5071772;28;20208;-65
2021/12/17 15:04:42;;;;;;;1.27;0.68;;;17.80;60.30;;;;;;5052551;28;20181;-65
2021/12/17 15:07:08;;;;;;;1.80;0.80;;;17.80;61.10;;;;;;5052289;28;20171;-64
2021/12/17 15:09:36;;;;;;;1.90;0.60;;;17.80;60.20;;;;;;5052641;28;20211;-65
2021/12/17 15:12:12;;;;;;;2.83;1.00;;;17.80;60.30;;;;;;5052821;28;20613;-62
2021/12/17 15:14:40;;;;;;;1.10;0.70;;;17.80;60.30;;;;;;5051866;28;20207;-63
2021/12/17 15:17:09;;;;;;;1.77;0.60;;;17.80;60.60;;;;;;5052726;28;20167;-61
2021/12/17 15:19:34;;;;;;;1.83;0.70;;;17.80;60.50;;;;;;5052409;28;20175;-64
2021/12/17 15:22:00;;;;;;;1.08;0.50;;;17.90;60.60;;;;;;5052003;28;20175;-62
2021/12/17 15:24:25;;;;;;;1.40;0.70;;;17.90;60.60;;;;;;5052316;28;20171;-64
2021/12/17 15:26:51;;;;;;;1.00;0.77;;;17.90;60.60;;;;;;5052503;28;20175;-63
2021/12/17 15:29:18;;;;;;;1.80;0.60;;;18.00;60.60;;;;;;5051732;28;20195;-64
2021/12/17 15:31:43;;;;;;;0.70;0.50;;;18.10;60.30;;;;;;5052854;28;20179;-65
2021/12/17 15:34:09;;;;;;;1.88;0.73;;;18.30;60.10;;;;;;5052512;28;20171;-64
2021/12/17 15:36:34;;;;;;;2.55;0.70;;;18.50;59.80;;;;;;5051412;28;20179;-63
2021/12/17 15:39:00;;;;;;;3.92;0.55;;;18.50;59.70;;;;;;5052530;28;20638;-63
2021/12/17 15:41:28;;;;;;;2.92;0.80;;;18.70;59.50;;;;;;5052122;28;20249;-64
2021/12/17 15:44:00;;;;;;;3.55;0.90;;;18.80;59.40;;;;;;5051365;28;20176;-63
2021/12/17 15:46:25;;;;;;;4.22;0.88;;;19.00;59.10;;;;;;5051621;28;20696;-64
2021/12/17 15:48:51;;;;;;;5.78;1.05;;;19.20;58.80;;;;;;5051813;28;20194;-64
2021/12/17 15:51:16;;;;;;;1.63;0.60;;;19.40;58.40;;;;;;5051604;28;20167;-65
2021/12/17 15:53:42;;;;;;;1.67;0.80;;;19.50;58.10;;;;;;5065997;28;20167;-65
2021/12/17 15:56:07;;;;;;;1.00;0.57;;;19.50;57.90;;;;;;5071678;28;20613;-64
2021/12/17 15:58:35;;;;;;;1.17;0.60;;;19.60;57.90;;;;;;5071340;28;20617;-63
2021/12/17 16:01:01;;;;;;;1.73;0.85;;;19.60;57.80;;;;;;5071758;28;20166;-64
2021/12/17 16:03:31;;;;;;;1.27;0.70;;;19.70;57.80;;;;;;5070873;28;20651;-67